createdAt,value
2018-11-02T00:01:07.764Z,14.93
2018-11-02T00:03:36.280Z,14.95
2018-11-02T00:06:04.832Z,14.98
2018-11-02T00:08:33.283Z,14.97
2018-11-02T00:11:01.757Z,14.97
2018-11-02T00:13:30.279Z,14.96
2018-11-02T00:15:58.739Z,14.96
2018-11-02T00:18:27.232Z,14.93
2018-11-02T00:20:55.671Z,14.93
2018-11-02T00:23:24.158Z,14.90
2018-11-02T00:25:52.647Z,14.90
2018-11-02T00:28:21.067Z,14.85
2018-11-02T00:30:49.576Z,14.84
2018-11-02T00:33:18.053Z,14.83
2018-11-02T00:35:46.583Z,14.84
2018-11-02T00:38:15.030Z,14.83
2018-11-02T00:40:43.525Z,14.79
2018-11-02T00:43:12.007Z,14.78
2018-11-02T00:45:40.458Z,14.74
2018-11-02T00:48:08.864Z,14.65
2018-11-02T00:50:37.334Z,14.59
2018-11-02T00:53:06.188Z,14.54
2018-11-02T00:55:34.684Z,14.50
2018-11-02T00:58:03.088Z,14.43
2018-11-02T01:00:31.556Z,14.43
2018-11-02T01:02:59.981Z,14.40
2018-11-02T01:05:28.404Z,14.43
2018-11-02T01:07:56.802Z,14.44
2018-11-02T01:10:25.243Z,14.48
2018-11-02T01:12:53.659Z,14.51
2018-11-02T01:15:22.083Z,14.56
2018-11-02T01:17:50.907Z,14.57
2018-11-02T01:20:19.384Z,14.57
2018-11-02T01:22:47.806Z,14.61
2018-11-02T01:25:16.292Z,14.64
2018-11-02T01:27:44.727Z,14.67
2018-11-02T01:30:13.220Z,14.68
2018-11-02T01:32:41.686Z,14.74
2018-11-02T01:35:10.282Z,14.71
2018-11-02T01:37:39.015Z,14.73
2018-11-02T01:40:08.306Z,14.70
2018-11-02T01:42:36.928Z,14.70
2018-11-02T01:45:05.428Z,14.67
2018-11-02T01:47:33.917Z,14.61
2018-11-02T01:50:02.377Z,14.53
2018-11-02T01:52:30.838Z,14.51
2018-11-02T01:54:59.386Z,14.47
2018-11-02T01:57:27.843Z,14.48
2018-11-02T01:59:56.298Z,14.50
2018-11-02T02:02:24.784Z,14.49
2018-11-02T02:04:53.266Z,14.19
2018-11-02T02:07:21.748Z,14.52
2018-11-02T02:09:50.216Z,14.51
2018-11-02T02:12:18.709Z,14.52
2018-11-02T02:14:47.229Z,14.50
2018-11-02T02:17:15.710Z,14.51
2018-11-02T02:19:44.125Z,14.55
2018-11-02T02:22:12.585Z,14.58
2018-11-02T02:24:41.066Z,14.66
2018-11-02T02:27:09.529Z,14.67
2018-11-02T02:29:37.997Z,14.69
2018-11-02T02:32:06.495Z,14.66
2018-11-02T02:34:34.964Z,14.67
2018-11-02T02:37:03.405Z,14.66
2018-11-02T02:39:31.784Z,14.67
2018-11-02T02:42:00.236Z,14.58
2018-11-02T02:44:28.688Z,14.54
2018-11-02T02:46:57.122Z,14.56
2018-11-02T02:49:25.570Z,14.54
2018-11-02T02:51:54.054Z,14.55
2018-11-02T02:54:22.509Z,14.53
2018-11-02T02:56:50.990Z,14.53
2018-11-02T02:59:19.468Z,14.56
2018-11-02T03:01:47.966Z,14.56
2018-11-02T03:04:16.431Z,14.62
2018-11-02T03:06:44.904Z,14.64
2018-11-02T03:09:13.401Z,14.62
2018-11-02T03:11:41.867Z,14.64
2018-11-02T03:14:10.366Z,14.63
2018-11-02T03:16:38.769Z,14.62
2018-11-02T03:19:07.300Z,14.64
2018-11-02T03:21:35.740Z,14.64
2018-11-02T03:24:04.166Z,14.65
2018-11-02T03:26:32.603Z,14.65
2018-11-02T03:29:01.024Z,14.64
2018-11-02T03:31:29.476Z,14.66
2018-11-02T03:33:57.920Z,14.63
2018-11-02T03:36:26.344Z,14.61
2018-11-02T03:38:54.779Z,14.57
2018-11-02T03:41:23.265Z,14.59
2018-11-02T03:43:51.705Z,14.56
2018-11-02T03:46:20.148Z,14.57
2018-11-02T03:48:48.587Z,14.56
2018-11-02T03:51:17.127Z,14.56
2018-11-02T03:53:45.621Z,14.52
2018-11-02T03:56:14.153Z,14.49
2018-11-02T03:58:42.569Z,14.46
2018-11-02T04:01:11.055Z,14.49
2018-11-02T04:03:39.571Z,14.49
2018-11-02T04:06:08.190Z,14.49
2018-11-02T04:08:36.713Z,14.47
2018-11-02T04:11:05.235Z,14.46
2018-11-02T04:13:33.668Z,14.45
2018-11-02T04:16:02.095Z,14.46
2018-11-02T04:18:30.744Z,14.47
2018-11-02T04:20:59.150Z,14.41
2018-11-02T04:23:27.618Z,14.44
2018-11-02T04:25:56.060Z,14.42
2018-11-02T04:28:24.527Z,14.40
2018-11-02T04:30:52.994Z,14.40
2018-11-02T04:33:21.388Z,14.37
2018-11-02T04:35:49.831Z,14.37
2018-11-02T04:38:18.331Z,14.36
2018-11-02T04:40:46.846Z,14.32
2018-11-02T04:43:15.291Z,14.33
2018-11-02T04:45:43.719Z,14.29
2018-11-02T04:48:13.197Z,14.29
2018-11-02T04:50:42.127Z,14.28
2018-11-02T04:53:10.610Z,14.21
2018-11-02T04:55:39.166Z,14.23
2018-11-02T04:58:07.741Z,14.21
2018-11-02T05:00:36.283Z,14.18
2018-11-02T05:03:05.186Z,14.18
2018-11-02T05:05:33.766Z,14.16
2018-11-02T05:08:02.361Z,14.20
2018-11-02T05:10:30.829Z,14.22
2018-11-02T05:12:59.297Z,14.23
2018-11-02T05:15:27.759Z,14.20
2018-11-02T05:17:56.226Z,14.20
2018-11-02T05:20:24.704Z,14.18
2018-11-02T05:22:53.257Z,14.17
2018-11-02T05:25:21.735Z,14.13
2018-11-02T05:27:50.200Z,14.15
2018-11-02T05:30:18.720Z,14.14
2018-11-02T05:32:47.214Z,14.12
2018-11-02T05:35:15.679Z,14.11
2018-11-02T05:37:44.261Z,14.09
2018-11-02T05:40:12.796Z,14.06
2018-11-02T05:42:41.275Z,14.04
2018-11-02T05:45:09.764Z,14.01
2018-11-02T05:47:38.235Z,13.99
2018-11-02T05:50:06.936Z,14.02
2018-11-02T05:52:35.385Z,14.01
2018-11-02T05:55:03.871Z,14.01
2018-11-02T05:57:32.427Z,13.98
2018-11-02T06:00:00.959Z,14.01
2018-11-02T06:02:29.417Z,13.95
2018-11-02T06:04:58.842Z,13.99
2018-11-02T06:07:27.370Z,13.99
2018-11-02T06:09:55.922Z,14.00
2018-11-02T06:12:24.689Z,13.99
2018-11-02T06:14:53.284Z,14.00
2018-11-02T06:17:21.833Z,14.01
2018-11-02T06:19:50.583Z,13.98
2018-11-02T06:22:19.175Z,13.98
2018-11-02T06:24:47.637Z,13.96
2018-11-02T06:27:16.264Z,13.92
2018-11-02T06:29:44.867Z,13.95
2018-11-02T06:32:13.471Z,13.93
2018-11-02T06:34:41.960Z,13.90
2018-11-02T06:37:10.441Z,13.86
2018-11-02T06:39:38.955Z,13.86
2018-11-02T06:42:07.563Z,13.85
2018-11-02T06:44:36.183Z,13.82
2018-11-02T06:47:04.745Z,13.80
2018-11-02T06:49:33.360Z,13.82
2018-11-02T06:52:01.983Z,13.86
2018-11-02T06:54:30.494Z,13.86
2018-11-02T06:56:59.147Z,13.88
2018-11-02T06:59:27.690Z,13.91
2018-11-02T07:01:56.235Z,13.97
2018-11-02T07:04:24.811Z,14.01
2018-11-02T07:06:53.326Z,14.03
2018-11-02T07:09:21.806Z,14.06
2018-11-02T07:11:50.341Z,14.05
2018-11-02T07:14:18.923Z,14.09
2018-11-02T07:16:47.426Z,14.11
2018-11-02T07:19:16.057Z,14.10
2018-11-02T07:21:44.500Z,14.09
2018-11-02T07:24:12.987Z,14.09
2018-11-02T07:26:41.465Z,14.07
2018-11-02T07:29:10.352Z,14.10
2018-11-02T07:31:38.852Z,14.14
2018-11-02T07:34:07.850Z,14.17
2018-11-02T07:36:36.359Z,14.22
2018-11-02T07:39:07.247Z,14.27
2018-11-02T07:41:35.990Z,14.33
2018-11-02T07:44:04.623Z,14.39
2018-11-02T07:46:33.272Z,14.43
2018-11-02T07:49:01.854Z,14.49
2018-11-02T07:51:30.433Z,14.51
2018-11-02T07:53:59.058Z,14.53
2018-11-02T07:56:27.670Z,14.58
2018-11-02T07:58:56.319Z,14.64
2018-11-02T08:01:25.101Z,14.67
2018-11-02T08:03:53.662Z,14.70
2018-11-02T08:06:22.277Z,14.72
2018-11-02T08:08:51.001Z,14.76
2018-11-02T08:11:19.534Z,14.81
2018-11-02T08:13:48.011Z,14.93
2018-11-02T08:16:16.633Z,14.97
2018-11-02T08:18:45.208Z,15.04
2018-11-02T08:21:13.897Z,15.09
2018-11-02T08:23:42.366Z,15.16
2018-11-02T08:26:10.975Z,15.27
2018-11-02T08:28:39.557Z,15.39
2018-11-02T08:31:08.092Z,15.57
2018-11-02T08:33:36.615Z,15.76
2018-11-02T08:36:05.352Z,15.89
2018-11-02T08:38:34.101Z,15.93
2018-11-02T08:41:02.642Z,15.94
2018-11-02T08:43:31.199Z,15.91
2018-11-02T08:45:59.731Z,15.90
2018-11-02T08:48:28.287Z,15.90
2018-11-02T08:50:56.857Z,15.88
2018-11-02T08:53:26.035Z,15.85
2018-11-02T08:55:55.786Z,15.83
2018-11-02T08:58:24.528Z,15.81
2018-11-02T09:00:52.892Z,15.90
2018-11-02T09:03:21.461Z,16.20
2018-11-02T09:05:50.112Z,16.72
2018-11-02T09:08:18.786Z,17.07
2018-11-02T09:10:47.345Z,17.56
2018-11-02T09:13:15.990Z,17.60
2018-11-02T09:15:44.529Z,17.46
2018-11-02T09:18:13.081Z,17.54
2018-11-02T09:20:41.647Z,17.51
2018-11-02T09:23:10.226Z,17.46
2018-11-02T09:25:38.720Z,17.40
2018-11-02T09:28:07.426Z,17.46
2018-11-02T09:30:35.941Z,17.45
2018-11-02T09:33:04.512Z,17.46
2018-11-02T09:35:33.111Z,17.38
2018-11-02T09:38:01.680Z,17.38
2018-11-02T09:40:30.467Z,17.52
2018-11-02T09:42:59.029Z,17.76
2018-11-02T09:45:27.638Z,17.88
2018-11-02T09:47:56.283Z,18.27
2018-11-02T09:50:24.931Z,18.69
2018-11-02T09:52:53.545Z,18.99
2018-11-02T09:55:22.301Z,19.22
2018-11-02T09:57:51.000Z,19.69
2018-11-02T10:00:19.611Z,21.20
2018-11-02T10:02:48.212Z,21.95
2018-11-02T10:05:16.753Z,21.64
2018-11-02T10:07:45.367Z,21.27
2018-11-02T10:10:13.960Z,20.79
2018-11-02T10:12:42.553Z,20.36
2018-11-02T10:15:14.012Z,20.01
2018-11-02T10:17:42.588Z,19.81
2018-11-02T10:20:11.870Z,19.90
2018-11-02T10:22:40.524Z,19.90
2018-11-02T10:25:10.430Z,19.74
2018-11-02T10:27:40.329Z,19.60
2018-11-02T10:30:13.444Z,19.61
2018-11-02T10:32:46.194Z,19.71
2018-11-02T10:35:14.802Z,19.80
2018-11-02T10:37:43.307Z,20.57
2018-11-02T10:40:15.462Z,21.36
2018-11-02T10:42:45.257Z,21.47
2018-11-02T10:45:13.879Z,21.49
2018-11-02T10:47:42.484Z,21.37
2018-11-02T10:50:11.007Z,21.61
2018-11-02T10:52:39.502Z,22.23
2018-11-02T10:55:08.138Z,22.23
2018-11-02T10:57:36.723Z,22.19
2018-11-02T11:00:08.069Z,23.15
2018-11-02T11:02:37.452Z,23.44
2018-11-02T11:05:07.434Z,23.08
2018-11-02T11:07:36.111Z,22.77
2018-11-02T11:10:05.897Z,22.86
2018-11-02T11:12:34.468Z,22.58
2018-11-02T11:15:02.948Z,22.20
2018-11-02T11:17:31.473Z,21.77
2018-11-02T11:20:00.004Z,21.41
2018-11-02T11:22:28.676Z,21.06
2018-11-02T11:24:57.667Z,20.82
2018-11-02T11:27:26.248Z,20.67
2018-11-02T11:29:54.887Z,20.65
2018-11-02T11:32:23.460Z,21.06
2018-11-02T11:34:52.101Z,22.38
2018-11-02T11:37:20.622Z,22.86
2018-11-02T11:39:49.243Z,23.35
2018-11-02T11:42:17.720Z,24.81
2018-11-02T11:44:46.319Z,24.69
2018-11-02T11:47:14.939Z,23.98
2018-11-02T11:49:43.433Z,23.24
2018-11-02T11:52:11.958Z,22.60
2018-11-02T11:54:40.612Z,22.15
2018-11-02T11:57:08.974Z,21.75
2018-11-02T11:59:37.408Z,21.37
2018-11-02T12:02:06.008Z,21.08
2018-11-02T12:04:34.690Z,20.79
2018-11-02T12:07:03.333Z,20.49
2018-11-02T12:09:32.004Z,20.22
2018-11-02T12:12:00.604Z,20.00
2018-11-02T12:14:29.268Z,19.79
2018-11-02T12:16:57.843Z,19.57
2018-11-02T12:19:26.520Z,19.40
2018-11-02T12:21:55.346Z,19.23
2018-11-02T12:24:25.356Z,19.10
2018-11-02T12:26:53.965Z,19.04
2018-11-02T12:29:22.518Z,19.09
2018-11-02T12:31:51.020Z,19.20
2018-11-02T12:34:19.692Z,19.17
2018-11-02T12:36:48.241Z,19.07
2018-11-02T12:39:17.048Z,18.89
2018-11-02T12:41:45.800Z,18.70
2018-11-02T12:44:15.227Z,18.50
2018-11-02T12:46:44.964Z,18.34
2018-11-02T12:49:14.451Z,18.15
2018-11-02T12:51:43.235Z,17.99
2018-11-02T12:54:11.829Z,17.84
2018-11-02T12:56:40.471Z,17.74
2018-11-02T12:59:09.051Z,17.57
2018-11-02T13:01:37.723Z,17.45
2018-11-02T13:04:06.763Z,17.35
2018-11-02T13:06:35.419Z,17.25
2018-11-02T13:09:05.117Z,17.23
2018-11-02T13:11:33.730Z,17.21
2018-11-02T13:14:02.367Z,17.20
2018-11-02T13:16:31.001Z,17.18
2018-11-02T13:18:59.759Z,17.16
2018-11-02T13:21:28.301Z,17.13
2018-11-02T13:23:56.908Z,17.15
2018-11-02T13:26:25.444Z,17.18
2018-11-02T13:28:54.090Z,17.24
2018-11-02T13:31:22.817Z,17.31
2018-11-02T13:36:36.617Z,17.30
2018-11-02T13:39:07.988Z,17.24
2018-11-02T13:41:36.563Z,17.24
2018-11-02T13:44:05.258Z,17.24
2018-11-02T13:46:33.984Z,17.21
2018-11-02T13:49:02.528Z,17.15
2018-11-02T13:51:31.074Z,13.73
2018-11-02T13:53:59.675Z,17.01
2018-11-02T13:56:28.260Z,16.91
2018-11-02T13:58:57.100Z,16.85
2018-11-02T14:01:25.977Z,16.80
2018-11-02T14:03:54.522Z,16.75
2018-11-02T14:06:23.172Z,16.70
2018-11-02T14:08:51.680Z,16.68
2018-11-02T14:11:20.303Z,16.70
2018-11-02T14:13:48.891Z,16.71
2018-11-02T14:16:17.428Z,16.72
2018-11-02T14:18:46.127Z,16.74
2018-11-02T14:21:14.805Z,16.74
2018-11-02T14:23:43.496Z,16.76
2018-11-02T14:26:12.062Z,16.76
2018-11-02T14:28:40.618Z,16.74
2018-11-02T14:31:09.167Z,16.74
2018-11-02T14:33:37.659Z,16.75
2018-11-02T14:36:06.213Z,16.77
2018-11-02T14:38:34.796Z,16.78
2018-11-02T14:41:03.506Z,16.77
2018-11-02T14:43:31.930Z,16.74
2018-11-02T14:46:00.523Z,16.75
2018-11-02T14:48:29.090Z,16.73
2018-11-02T14:50:57.683Z,16.71
2018-11-02T14:53:26.461Z,16.71
2018-11-02T14:55:55.111Z,16.70
2018-11-02T14:58:23.770Z,16.70
2018-11-02T15:00:52.513Z,16.69
2018-11-02T15:03:21.110Z,16.65
2018-11-02T15:05:50.455Z,16.62
2018-11-02T15:08:19.164Z,16.60
2018-11-02T15:10:48.117Z,16.56
2018-11-02T15:13:16.804Z,16.47
2018-11-02T15:15:45.343Z,16.40
2018-11-02T15:18:14.575Z,16.33
2018-11-02T15:20:43.205Z,16.29
2018-11-02T15:23:11.956Z,16.22
2018-11-02T15:25:40.604Z,16.17
2018-11-02T15:28:09.272Z,16.13
2018-11-02T15:30:37.894Z,16.07
2018-11-02T15:33:07.045Z,16.04
2018-11-02T15:35:35.709Z,15.99
2018-11-02T15:38:04.276Z,15.92
2018-11-02T15:40:32.896Z,15.84
2018-11-02T15:43:01.519Z,15.77
2018-11-02T15:45:30.095Z,15.71
2018-11-02T15:47:58.931Z,15.64
2018-11-02T15:50:27.468Z,15.58
2018-11-02T15:52:55.965Z,15.52
2018-11-02T15:55:24.530Z,15.46
2018-11-02T15:57:53.082Z,15.39
2018-11-02T16:00:21.634Z,15.28
2018-11-02T16:02:51.437Z,15.21
2018-11-02T16:05:20.146Z,15.14
2018-11-02T16:07:48.795Z,15.06
2018-11-02T16:10:17.335Z,14.97
2018-11-02T16:12:45.950Z,14.88
2018-11-02T16:15:14.497Z,14.79
2018-11-02T16:17:43.114Z,14.69
2018-11-02T16:20:13.688Z,14.58
2018-11-02T16:22:42.641Z,13.60
2018-11-02T16:25:11.225Z,14.39
2018-11-02T16:27:39.916Z,14.30
2018-11-02T16:30:09.035Z,14.19
2018-11-02T16:32:37.525Z,14.09
2018-11-02T16:35:06.993Z,13.99
2018-11-02T16:37:35.545Z,13.87
2018-11-02T16:40:04.543Z,13.78
2018-11-02T16:42:33.076Z,13.69
2018-11-02T16:45:01.683Z,13.60
2018-11-02T16:47:30.288Z,13.54
2018-11-02T16:49:58.995Z,13.48
2018-11-02T16:52:27.565Z,13.41
2018-11-02T16:54:56.091Z,13.36
2018-11-02T16:57:26.114Z,13.27
2018-11-02T16:59:54.595Z,13.22
2018-11-02T17:02:23.226Z,13.17
2018-11-02T17:04:51.807Z,13.14
2018-11-02T17:07:20.404Z,13.10
2018-11-02T17:09:49.006Z,13.09
2018-11-02T17:12:17.650Z,13.09
2018-11-02T17:14:46.245Z,13.05
2018-11-02T17:17:14.788Z,13.06
2018-11-02T17:19:43.387Z,13.06
2018-11-02T17:22:12.110Z,13.06
2018-11-02T17:24:40.619Z,13.03
2018-11-02T17:27:09.133Z,13.00
2018-11-02T17:29:37.710Z,12.99
2018-11-02T17:32:06.429Z,12.94
2018-11-02T17:34:35.052Z,12.90
2018-11-02T17:37:03.718Z,12.87
2018-11-02T17:39:32.318Z,12.84
2018-11-02T17:42:00.886Z,12.81
2018-11-02T17:44:29.476Z,12.76
2018-11-02T17:46:58.123Z,12.68
2018-11-02T17:49:26.744Z,12.62
2018-11-02T17:51:55.388Z,12.55
2018-11-02T17:54:24.081Z,12.50
2018-11-02T17:56:52.600Z,12.43
2018-11-02T17:59:21.327Z,12.38
2018-11-02T18:01:50.005Z,12.32
2018-11-02T18:04:18.566Z,12.24
2018-11-02T18:06:47.363Z,12.18
2018-11-02T18:09:15.986Z,12.14
2018-11-02T18:11:44.591Z,12.08
2018-11-02T18:14:13.135Z,12.06
2018-11-02T18:16:41.645Z,12.01
2018-11-02T18:19:10.206Z,11.96
2018-11-02T18:21:38.794Z,11.91
2018-11-02T18:24:07.600Z,11.87
2018-11-02T18:26:36.036Z,11.83
2018-11-02T18:29:04.648Z,11.77
2018-11-02T18:31:33.150Z,11.73
2018-11-02T18:34:01.677Z,11.67
2018-11-02T18:39:22.829Z,11.57
2018-11-02T18:41:51.400Z,11.52
2018-11-02T18:44:20.129Z,11.48
2018-11-02T18:46:48.867Z,11.45
2018-11-02T18:49:17.564Z,11.41
2018-11-02T18:51:46.248Z,11.39
2018-11-02T18:54:15.073Z,11.35
2018-11-02T18:56:43.610Z,11.32
2018-11-02T18:59:12.271Z,11.27
2018-11-02T19:01:40.828Z,11.24
2018-11-02T19:04:09.464Z,11.21
2018-11-02T19:06:38.101Z,11.20
2018-11-02T19:09:09.071Z,11.18
2018-11-02T19:11:38.759Z,11.16
2018-11-02T19:14:07.459Z,11.12
2018-11-02T19:16:36.080Z,11.09
2018-11-02T19:19:04.752Z,11.06
2018-11-02T19:21:33.362Z,11.02
2018-11-02T19:24:01.913Z,11.00
2018-11-02T19:26:30.485Z,10.95
2018-11-02T19:28:59.132Z,10.93
2018-11-02T19:31:27.751Z,10.90
2018-11-02T19:33:56.287Z,10.86
2018-11-02T19:36:24.824Z,10.82
2018-11-02T19:38:53.331Z,10.79
2018-11-02T19:41:21.913Z,10.75
2018-11-02T19:43:50.865Z,10.74
2018-11-02T19:46:19.496Z,10.72
2018-11-02T19:48:48.057Z,10.69
2018-11-02T19:51:16.737Z,10.66
2018-11-02T19:53:45.311Z,10.64
2018-11-02T19:56:13.850Z,10.60
2018-11-02T19:58:42.382Z,10.57
2018-11-02T20:01:11.173Z,10.53
2018-11-02T20:03:39.528Z,10.50
2018-11-02T20:06:08.059Z,10.46
2018-11-02T20:08:36.568Z,10.44
2018-11-02T20:11:05.295Z,10.40
2018-11-02T20:13:33.803Z,10.37
2018-11-02T20:16:02.372Z,10.33
2018-11-02T20:18:30.929Z,10.30
2018-11-02T20:20:59.512Z,10.28
2018-11-02T20:23:28.127Z,10.24
2018-11-02T20:25:56.899Z,10.19
2018-11-02T20:28:25.726Z,10.14
2018-11-02T20:30:54.267Z,10.11
2018-11-02T20:33:22.807Z,10.09
2018-11-02T20:35:51.370Z,10.07
2018-11-02T20:38:19.916Z,10.05
2018-11-02T20:40:48.460Z,10.01
2018-11-02T20:43:17.090Z,10.00
2018-11-02T20:45:45.582Z,9.98
2018-11-02T20:48:14.098Z,9.92
2018-11-02T20:50:42.584Z,9.90
2018-11-02T20:53:11.168Z,9.86
2018-11-02T20:55:39.785Z,9.84
2018-11-02T20:58:08.314Z,9.80
2018-11-02T21:00:36.790Z,9.76
2018-11-02T21:03:05.591Z,9.74
2018-11-02T21:05:34.200Z,9.73
2018-11-02T21:08:02.815Z,9.69
2018-11-02T21:10:31.217Z,9.68
2018-11-02T21:12:59.719Z,9.65
2018-11-02T21:15:28.220Z,9.63
2018-11-02T21:17:56.779Z,9.59
2018-11-02T21:20:26.138Z,9.56
2018-11-02T21:22:54.613Z,9.52
2018-11-02T21:25:23.206Z,9.48
2018-11-02T21:27:51.704Z,9.46
2018-11-02T21:30:21.804Z,9.44
2018-11-02T21:32:50.992Z,9.42
2018-11-02T21:35:20.170Z,9.40
2018-11-02T21:37:49.464Z,9.37
2018-11-02T21:40:19.206Z,9.36
2018-11-02T21:42:47.715Z,7.72
2018-11-02T21:45:17.576Z,9.34
2018-11-02T21:47:46.299Z,9.30
2018-11-02T21:50:15.517Z,9.26
2018-11-02T21:52:44.122Z,9.24
2018-11-02T21:55:12.663Z,9.22
2018-11-02T21:57:41.227Z,9.18
2018-11-02T22:00:11.966Z,9.17
2018-11-02T22:02:40.731Z,9.19
2018-11-02T22:05:10.439Z,9.20
2018-11-02T22:07:38.903Z,9.21
2018-11-02T22:10:08.543Z,9.22
2018-11-02T22:12:37.613Z,9.24
2018-11-02T22:15:06.475Z,9.25
2018-11-02T22:17:34.979Z,9.22
2018-11-02T22:20:03.440Z,9.22
2018-11-02T22:22:32.115Z,9.22
2018-11-02T22:25:00.588Z,9.22
2018-11-02T22:27:29.169Z,9.21
2018-11-02T22:29:57.645Z,9.20
2018-11-02T22:32:26.195Z,9.19
2018-11-02T22:34:54.671Z,9.16
2018-11-02T22:37:23.231Z,9.15
2018-11-02T22:39:51.700Z,9.14
2018-11-02T22:42:20.244Z,9.11
2018-11-02T22:44:48.759Z,9.10
2018-11-02T22:47:17.304Z,9.08
2018-11-02T22:49:45.806Z,9.05
2018-11-02T22:52:14.340Z,9.06
2018-11-02T22:54:42.852Z,9.05
2018-11-02T22:57:11.343Z,9.03
2018-11-02T22:59:39.879Z,9.02
2018-11-02T23:02:08.430Z,9.01
2018-11-02T23:04:36.915Z,9.00
2018-11-02T23:07:05.532Z,8.97
2018-11-02T23:09:34.061Z,8.97
2018-11-02T23:12:02.626Z,8.96
2018-11-02T23:14:31.374Z,8.94
2018-11-02T23:17:00.011Z,8.94
2018-11-02T23:19:28.526Z,8.92
2018-11-02T23:21:57.044Z,8.88
2018-11-02T23:24:25.749Z,8.86
2018-11-02T23:26:54.296Z,8.83
2018-11-02T23:29:22.821Z,8.82
2018-11-02T23:31:51.345Z,8.79
2018-11-02T23:34:19.866Z,8.79
2018-11-02T23:36:48.401Z,8.75
2018-11-02T23:39:16.898Z,8.73
2018-11-02T23:41:45.423Z,8.71
2018-11-02T23:44:13.892Z,8.67
2018-11-02T23:46:42.414Z,8.65
2018-11-02T23:49:10.957Z,8.63
2018-11-02T23:51:39.513Z,8.63
2018-11-02T23:54:08.040Z,8.61
2018-11-02T23:56:37.438Z,8.60
2018-11-02T23:59:06.343Z,8.58
